sensor_id;sensor_type;location;lat;lon;timestamp;temperature;humidity
8400;DHT22;4237;47.030;15.396;2023-02-01T08:18:46;20.40;74.00
8400;DHT22;4237;47.030;15.396;2023-02-01T08:21:18;20.20;75.20
8400;DHT22;4237;47.030;15.396;2023-02-01T08:23:48;20.80;74.00
8400;DHT22;4237;47.030;15.396;2023-02-01T08:26:22;21.70;71.70
8400;DHT22;4237;47.030;15.396;2023-02-01T08:28:57;21.00;71.20
8400;DHT22;4237;47.030;15.396;2023-02-01T08:31:28;21.70;70.10
8400;DHT22;4237;47.030;15.396;2023-02-01T08:34:00;20.80;70.80
8400;DHT22;4237;47.030;15.396;2023-02-01T08:36:30;21.20;69.80
8400;DHT22;4237;47.030;15.396;2023-02-01T08:38:59;21.90;68.50
8400;DHT22;4237;47.030;15.396;2023-02-01T08:41:29;23.10;66.40
8400;DHT22;4237;47.030;15.396;2023-02-01T08:43:58;22.40;62.80
8400;DHT22;4237;47.030;15.396;2023-02-01T08:46:27;21.80;66.30
8400;DHT22;4237;47.030;15.396;2023-02-01T08:48:56;22.40;66.80
8400;DHT22;4237;47.030;15.396;2023-02-01T08:51:25;23.20;66.00
8400;DHT22;4237;47.030;15.396;2023-02-01T08:53:54;23.50;63.90
8400;DHT22;4237;47.030;15.396;2023-02-01T08:56:22;23.80;63.00
8400;DHT22;4237;47.030;15.396;2023-02-01T08:58:51;24.70;61.10
8400;DHT22;4237;47.030;15.396;2023-02-01T09:01:20;22.80;62.80
8400;DHT22;4237;47.030;15.396;2023-02-01T09:03:48;22.80;63.50
8400;DHT22;4237;47.030;15.396;2023-02-01T09:06:17;23.40;62.90
8400;DHT22;4237;47.030;15.396;2023-02-01T09:08:46;23.70;63.40
8400;DHT22;4237;47.030;15.396;2023-02-01T09:11:17;23.30;61.90
8400;DHT22;4237;47.030;15.396;2023-02-01T09:13:47;22.60;62.80
8400;DHT22;4237;47.030;15.396;2023-02-01T09:16:16;23.30;63.60
8400;DHT22;4237;47.030;15.396;2023-02-01T09:18:45;23.20;62.80
8400;DHT22;4237;47.030;15.396;2023-02-01T09:21:13;22.20;62.00
8400;DHT22;4237;47.030;15.396;2023-02-01T09:23:42;20.80;64.50
8400;DHT22;4237;47.030;15.396;2023-02-01T09:26:11;21.60;65.40
8400;DHT22;4237;47.030;15.396;2023-02-01T09:28:39;20.70;65.80
8400;DHT22;4237;47.030;15.396;2023-02-01T09:31:08;19.70;67.40
8400;DHT22;4237;47.030;15.396;2023-02-01T09:33:36;20.60;67.10
8400;DHT22;4237;47.030;15.396;2023-02-01T09:36:06;21.70;65.90
8400;DHT22;4237;47.030;15.396;2023-02-01T09:38:35;22.30;69.80
8400;DHT22;4237;47.030;15.396;2023-02-01T09:46:30;19.90;71.30
8400;DHT22;4237;47.030;15.396;2023-02-01T09:49:03;19.00;72.60
8400;DHT22;4237;47.030;15.396;2023-02-01T09:51:34;17.20;78.60
8400;DHT22;4237;47.030;15.396;2023-02-01T09:56:49;17.00;84.00
8400;DHT22;4237;47.030;15.396;2023-02-01T09:59:33;17.90;82.50
8400;DHT22;4237;47.030;15.396;2023-02-01T10:02:02;19.50;77.20
8400;DHT22;4237;47.030;15.396;2023-02-01T10:04:32;19.30;73.50
8400;DHT22;4237;47.030;15.396;2023-02-01T10:10:04;17.90;77.50
8400;DHT22;4237;47.030;15.396;2023-02-01T10:18:15;21.70;74.20
8400;DHT22;4237;47.030;15.396;2023-02-01T10:26:26;23.00;70.20
8400;DHT22;4237;47.030;15.396;2023-02-01T10:29:02;24.00;70.20
8400;DHT22;4237;47.030;15.396;2023-02-01T10:31:34;24.40;67.70
8400;DHT22;4237;47.030;15.396;2023-02-01T10:34:10;25.50;66.20
8400;DHT22;4237;47.030;15.396;2023-02-01T10:36:49;26.80;64.00
8400;DHT22;4237;47.030;15.396;2023-02-01T10:39:13;27.40;59.90
8400;DHT22;4237;47.030;15.396;2023-02-01T10:41:43;27.80;60.20
8400;DHT22;4237;47.030;15.396;2023-02-01T10:44:16;27.00;61.60
8400;DHT22;4237;47.030;15.396;2023-02-01T10:46:46;27.60;62.10
8400;DHT22;4237;47.030;15.396;2023-02-01T10:49:20;29.30;60.30
8400;DHT22;4237;47.030;15.396;2023-02-01T10:52:05;28.40;58.70
8400;DHT22;4237;47.030;15.396;2023-02-01T10:54:36;28.60;56.70
8400;DHT22;4237;47.030;15.396;2023-02-01T10:57:11;27.30;55.70
8400;DHT22;4237;47.030;15.396;2023-02-01T10:59:40;26.30;56.90
8400;DHT22;4237;47.030;15.396;2023-02-01T11:02:26;24.70;58.00
8400;DHT22;4237;47.030;15.396;2023-02-01T11:07:33;22.60;62.70
8400;DHT22;4237;47.030;15.396;2023-02-01T11:10:03;21.40;62.80
8400;DHT22;4237;47.030;15.396;2023-02-01T11:12:35;21.00;63.80
8400;DHT22;4237;47.030;15.396;2023-02-01T11:15:23;19.10;67.60
8400;DHT22;4237;47.030;15.396;2023-02-01T11:17:52;19.00;70.80
8400;DHT22;4237;47.030;15.396;2023-02-01T11:23:02;20.40;72.20
8400;DHT22;4237;47.030;15.396;2023-02-01T11:25:34;19.10;71.20
8400;DHT22;4237;47.030;15.396;2023-02-01T11:28:05;19.30;73.90
8400;DHT22;4237;47.030;15.396;2023-02-01T11:30:41;18.40;76.20
8400;DHT22;4237;47.030;15.396;2023-02-01T11:33:06;17.80;77.50
8400;DHT22;4237;47.030;15.396;2023-02-01T11:35:39;15.70;81.20
8400;DHT22;4237;47.030;15.396;2023-02-01T11:38:33;17.00;86.10
8400;DHT22;4237;47.030;15.396;2023-02-01T11:40:47;17.60;81.90
8400;DHT22;4237;47.030;15.396;2023-02-01T11:43:28;17.00;84.10
8400;DHT22;4237;47.030;15.396;2023-02-01T11:45:59;18.10;79.70
8400;DHT22;4237;47.030;15.396;2023-02-01T11:48:33;18.70;80.20
8400;DHT22;4237;47.030;15.396;2023-02-01T11:56:58;24.50;66.30
8400;DHT22;4237;47.030;15.396;2023-02-01T12:04:58;24.10;57.10
8400;DHT22;4237;47.030;15.396;2023-02-01T12:16:22;24.00;54.20
8400;DHT22;4237;47.030;15.396;2023-02-01T12:24:40;26.80;51.00
8400;DHT22;4237;47.030;15.396;2023-02-01T12:27:15;26.70;51.00
8400;DHT22;4237;47.030;15.396;2023-02-01T12:35:47;22.70;51.60
8400;DHT22;4237;47.030;15.396;2023-02-01T12:41:09;24.20;53.80
8400;DHT22;4237;47.030;15.396;2023-02-01T12:46:29;23.60;48.40
8400;DHT22;4237;47.030;15.396;2023-02-01T12:51:39;22.60;52.60
8400;DHT22;4237;47.030;15.396;2023-02-01T12:54:28;23.00;51.50
8400;DHT22;4237;47.030;15.396;2023-02-01T12:56:55;24.10;51.20
8400;DHT22;4237;47.030;15.396;2023-02-01T12:59:36;23.70;49.20
8400;DHT22;4237;47.030;15.396;2023-02-01T13:02:11;22.60;49.50
8400;DHT22;4237;47.030;15.396;2023-02-01T13:04:49;21.70;50.30
8400;DHT22;4237;47.030;15.396;2023-02-01T13:07:24;21.90;52.20
8400;DHT22;4237;47.030;15.396;2023-02-01T13:10:02;23.50;50.20
8400;DHT22;4237;47.030;15.396;2023-02-01T13:12:40;22.80;50.60
8400;DHT22;4237;47.030;15.396;2023-02-01T13:15:28;22.20;50.40
8400;DHT22;4237;47.030;15.396;2023-02-01T13:17:59;22.50;50.70
8400;DHT22;4237;47.030;15.396;2023-02-01T13:20:49;22.60;48.70
8400;DHT22;4237;47.030;15.396;2023-02-01T13:23:34;23.40;49.50
8400;DHT22;4237;47.030;15.396;2023-02-01T13:25:58;22.00;50.30
8400;DHT22;4237;47.030;15.396;2023-02-01T13:31:46;19.90;52.50
8400;DHT22;4237;47.030;15.396;2023-02-01T13:37:23;21.60;51.30
8400;DHT22;4237;47.030;15.396;2023-02-01T13:43:01;21.70;50.40
8400;DHT22;4237;47.030;15.396;2023-02-01T13:45:28;21.80;50.80
8400;DHT22;4237;47.030;15.396;2023-02-01T13:47:59;21.30;51.10
8400;DHT22;4237;47.030;15.396;2023-02-01T13:50:34;21.40;51.80
8400;DHT22;4237;47.030;15.396;2023-02-01T13:55:51;22.30;51.60
8400;DHT22;4237;47.030;15.396;2023-02-01T13:58:31;22.60;51.40
8400;DHT22;4237;47.030;15.396;2023-02-01T14:03:57;21.30;52.10
8400;DHT22;4237;47.030;15.396;2023-02-01T14:11:41;21.10;51.10
8400;DHT22;4237;47.030;15.396;2023-02-01T14:19:27;21.30;51.00
8400;DHT22;4237;47.030;15.396;2023-02-01T14:22:01;20.50;52.10
8400;DHT22;4237;47.030;15.396;2023-02-01T14:24:33;20.40;52.80
8400;DHT22;4237;47.030;15.396;2023-02-01T14:29:40;20.70;53.40
8400;DHT22;4237;47.030;15.396;2023-02-01T14:32:17;21.10;53.50
8400;DHT22;4237;47.030;15.396;2023-02-01T14:42:45;18.30;55.50
8400;DHT22;4237;47.030;15.396;2023-02-01T14:47:52;18.70;55.60
8400;DHT22;4237;47.030;15.396;2023-02-01T14:50:27;18.40;55.60
8400;DHT22;4237;47.030;15.396;2023-02-01T15:00:55;14.90;62.10
8400;DHT22;4237;47.030;15.396;2023-02-01T15:03:45;14.20;64.80
8400;DHT22;4237;47.030;15.396;2023-02-01T15:06:22;13.20;65.80
8400;DHT22;4237;47.030;15.396;2023-02-01T15:08:53;13.10;66.30
8400;DHT22;4237;47.030;15.396;2023-02-01T15:11:23;13.40;64.60
8400;DHT22;4237;47.030;15.396;2023-02-01T15:13:53;13.70;65.60
8400;DHT22;4237;47.030;15.396;2023-02-01T15:16:25;12.50;63.30
8400;DHT22;4237;47.030;15.396;2023-02-01T15:19:11;12.10;67.20
8400;DHT22;4237;47.030;15.396;2023-02-01T15:21:46;11.70;69.60
8400;DHT22;4237;47.030;15.396;2023-02-01T15:24:27;11.30;69.50
8400;DHT22;4237;47.030;15.396;2023-02-01T15:27:08;11.20;73.10
8400;DHT22;4237;47.030;15.396;2023-02-01T15:29:31;11.00;73.30
8400;DHT22;4237;47.030;15.396;2023-02-01T15:32:01;10.70;77.20
8400;DHT22;4237;47.030;15.396;2023-02-01T15:34:47;10.40;79.80
8400;DHT22;4237;47.030;15.396;2023-02-01T15:37:17;10.10;80.50
8400;DHT22;4237;47.030;15.396;2023-02-01T15:42:54;9.70;86.60
8400;DHT22;4237;47.030;15.396;2023-02-01T15:45:26;9.50;87.90
8400;DHT22;4237;47.030;15.396;2023-02-01T15:47:57;9.30;89.30
8400;DHT22;4237;47.030;15.396;2023-02-01T15:50:28;9.20;90.30
8400;DHT22;4237;47.030;15.396;2023-02-01T15:52:58;9.00;90.20
8400;DHT22;4237;47.030;15.396;2023-02-01T15:55:38;8.90;91.60
8400;DHT22;4237;47.030;15.396;2023-02-01T15:58:09;8.70;92.10
8400;DHT22;4237;47.030;15.396;2023-02-01T16:00:44;8.60;92.80
8400;DHT22;4237;47.030;15.396;2023-02-01T16:03:37;8.40;93.30
8400;DHT22;4237;47.030;15.396;2023-02-01T16:06:29;8.20;94.10
8400;DHT22;4237;47.030;15.396;2023-02-01T16:09:02;8.10;95.00
8400;DHT22;4237;47.030;15.396;2023-02-01T16:11:32;8.10;94.90
8400;DHT22;4237;47.030;15.396;2023-02-01T16:14:02;8.00;95.80
8400;DHT22;4237;47.030;15.396;2023-02-01T16:16:30;7.90;96.20
8400;DHT22;4237;47.030;15.396;2023-02-01T16:18:59;7.80;96.50
8400;DHT22;4237;47.030;15.396;2023-02-01T16:21:28;7.70;96.80
8400;DHT22;4237;47.030;15.396;2023-02-01T16:23:57;7.60;97.10
8400;DHT22;4237;47.030;15.396;2023-02-01T16:26:28;7.50;97.10
8400;DHT22;4237;47.030;15.396;2023-02-01T16:28:57;7.40;97.20
8400;DHT22;4237;47.030;15.396;2023-02-01T16:31:29;7.20;98.00
8400;DHT22;4237;47.030;15.396;2023-02-01T16:33:59;7.20;98.50
8400;DHT22;4237;47.030;15.396;2023-02-01T16:36:28;7.10;98.70
8400;DHT22;4237;47.030;15.396;2023-02-01T16:38:56;6.90;99.10
8400;DHT22;4237;47.030;15.396;2023-02-01T16:41:26;6.90;99.30
8400;DHT22;4237;47.030;15.396;2023-02-01T16:43:55;6.80;99.50
8400;DHT22;4237;47.030;15.396;2023-02-01T16:46:27;6.80;99.90
8400;DHT22;4237;47.030;15.396;2023-02-01T16:48:59;6.80;99.70
8400;DHT22;4237;47.030;15.396;2023-02-01T16:51:32;6.70;99.90
8400;DHT22;4237;47.030;15.396;2023-02-01T16:54:02;6.70;99.90
8400;DHT22;4237;47.030;15.396;2023-02-01T16:56:33;6.60;99.90
8400;DHT22;4237;47.030;15.396;2023-02-01T16:59:03;6.60;99.90
8400;DHT22;4237;47.030;15.396;2023-02-01T17:01:33;6.60;99.90
8400;DHT22;4237;47.030;15.396;2023-02-01T17:04:04;6.50;99.90
8400;DHT22;4237;47.030;15.396;2023-02-01T17:06:32;6.40;99.90
8400;DHT22;4237;47.030;15.396;2023-02-01T17:09:05;6.40;99.90
8400;DHT22;4237;47.030;15.396;2023-02-01T17:11:34;6.40;99.90
8400;DHT22;4237;47.030;15.396;2023-02-01T17:14:16;6.30;99.90
8400;DHT22;4237;47.030;15.396;2023-02-01T17:16:46;6.30;99.90
8400;DHT22;4237;47.030;15.396;2023-02-01T17:19:19;6.30;99.90
8400;DHT22;4237;47.030;15.396;2023-02-01T17:21:51;6.30;99.90
8400;DHT22;4237;47.030;15.396;2023-02-01T17:24:24;6.20;99.90
8400;DHT22;4237;47.030;15.396;2023-02-01T17:26:54;6.10;99.90
8400;DHT22;4237;47.030;15.396;2023-02-01T17:29:24;6.20;99.90
8400;DHT22;4237;47.030;15.396;2023-02-01T17:31:54;6.00;99.90
8400;DHT22;4237;47.030;15.396;2023-02-01T17:34:23;6.00;99.90
8400;DHT22;4237;47.030;15.396;2023-02-01T17:36:52;6.00;99.90
8400;DHT22;4237;47.030;15.396;2023-02-01T17:39:22;5.90;99.90
8400;DHT22;4237;47.030;15.396;2023-02-01T17:42:10;5.80;99.90
8400;DHT22;4237;47.030;15.396;2023-02-01T17:44:40;5.70;99.90
8400;DHT22;4237;47.030;15.396;2023-02-01T17:47:09;5.50;99.90
8400;DHT22;4237;47.030;15.396;2023-02-01T17:49:39;5.30;99.90
8400;DHT22;4237;47.030;15.396;2023-02-01T17:52:17;5.40;99.90
8400;DHT22;4237;47.030;15.396;2023-02-01T17:54:41;5.30;99.90
8400;DHT22;4237;47.030;15.396;2023-02-01T17:57:11;5.20;99.90
8400;DHT22;4237;47.030;15.396;2023-02-01T17:59:41;5.10;99.90
8400;DHT22;4237;47.030;15.396;2023-02-01T18:02:19;5.00;99.90
8400;DHT22;4237;47.030;15.396;2023-02-01T18:04:49;4.70;99.90
8400;DHT22;4237;47.030;15.396;2023-02-01T18:07:19;4.40;99.90
8400;DHT22;4237;47.030;15.396;2023-02-01T18:09:48;4.20;99.90
8400;DHT22;4237;47.030;15.396;2023-02-01T18:12:20;4.00;99.90
8400;DHT22;4237;47.030;15.396;2023-02-01T18:14:49;3.80;99.90
8400;DHT22;4237;47.030;15.396;2023-02-01T18:17:19;3.80;99.90
8400;DHT22;4237;47.030;15.396;2023-02-01T18:19:49;3.70;99.90
8400;DHT22;4237;47.030;15.396;2023-02-01T18:22:21;3.60;99.90
8400;DHT22;4237;47.030;15.396;2023-02-01T18:24:51;3.40;99.90
8400;DHT22;4237;47.030;15.396;2023-02-01T18:27:21;3.20;99.90
8400;DHT22;4237;47.030;15.396;2023-02-01T18:29:50;3.30;99.90
8400;DHT22;4237;47.030;15.396;2023-02-01T18:32:22;3.20;99.90
8400;DHT22;4237;47.030;15.396;2023-02-01T18:34:51;3.10;99.90
8400;DHT22;4237;47.030;15.396;2023-02-01T18:37:21;3.00;99.90
8400;DHT22;4237;47.030;15.396;2023-02-01T18:39:50;2.80;99.90
8400;DHT22;4237;47.030;15.396;2023-02-01T18:42:20;2.80;99.90
8400;DHT22;4237;47.030;15.396;2023-02-01T18:44:49;2.60;99.90
8400;DHT22;4237;47.030;15.396;2023-02-01T18:47:20;2.50;99.90
8400;DHT22;4237;47.030;15.396;2023-02-01T18:49:49;2.40;99.90
8400;DHT22;4237;47.030;15.396;2023-02-01T18:52:18;2.20;99.90
8400;DHT22;4237;47.030;15.396;2023-02-01T18:54:47;2.20;99.90
8400;DHT22;4237;47.030;15.396;2023-02-01T18:57:17;2.10;99.90
8400;DHT22;4237;47.030;15.396;2023-02-01T18:59:49;2.00;99.90
8400;DHT22;4237;47.030;15.396;2023-02-01T19:02:18;1.80;99.90
8400;DHT22;4237;47.030;15.396;2023-02-01T19:04:49;1.90;99.90
8400;DHT22;4237;47.030;15.396;2023-02-01T19:07:20;1.80;99.90
8400;DHT22;4237;47.030;15.396;2023-02-01T19:09:50;1.90;99.90
8400;DHT22;4237;47.030;15.396;2023-02-01T19:12:20;1.70;99.90
8400;DHT22;4237;47.030;15.396;2023-02-01T19:14:50;1.60;99.90
8400;DHT22;4237;47.030;15.396;2023-02-01T19:17:19;1.60;99.90
8400;DHT22;4237;47.030;15.396;2023-02-01T19:19:49;1.60;99.90
8400;DHT22;4237;47.030;15.396;2023-02-01T19:22:22;1.50;99.90
8400;DHT22;4237;47.030;15.396;2023-02-01T19:24:52;1.40;99.90
8400;DHT22;4237;47.030;15.396;2023-02-01T19:27:23;1.30;99.90
8400;DHT22;4237;47.030;15.396;2023-02-01T19:29:53;1.20;99.90
8400;DHT22;4237;47.030;15.396;2023-02-01T19:32:23;1.30;99.90
8400;DHT22;4237;47.030;15.396;2023-02-01T19:34:52;1.40;99.90
8400;DHT22;4237;47.030;15.396;2023-02-01T19:37:22;1.60;99.90
8400;DHT22;4237;47.030;15.396;2023-02-01T19:39:52;1.60;99.90
8400;DHT22;4237;47.030;15.396;2023-02-01T19:42:22;1.50;99.90
8400;DHT22;4237;47.030;15.396;2023-02-01T19:44:54;1.40;99.90
8400;DHT22;4237;47.030;15.396;2023-02-01T19:47:24;1.30;99.90
8400;DHT22;4237;47.030;15.396;2023-02-01T19:49:54;1.40;99.90
8400;DHT22;4237;47.030;15.396;2023-02-01T19:52:23;1.80;99.90
8400;DHT22;4237;47.030;15.396;2023-02-01T19:54:54;1.90;99.90
8400;DHT22;4237;47.030;15.396;2023-02-01T19:57:24;2.20;99.90
8400;DHT22;4237;47.030;15.396;2023-02-01T19:59:53;2.50;99.90
8400;DHT22;4237;47.030;15.396;2023-02-01T20:02:23;3.00;99.90
8400;DHT22;4237;47.030;15.396;2023-02-01T20:04:56;3.20;99.90
8400;DHT22;4237;47.030;15.396;2023-02-01T20:07:26;3.50;99.90
8400;DHT22;4237;47.030;15.396;2023-02-01T20:09:55;3.80;99.90
8400;DHT22;4237;47.030;15.396;2023-02-01T20:12:28;4.00;99.90
8400;DHT22;4237;47.030;15.396;2023-02-01T20:14:57;4.10;99.90
8400;DHT22;4237;47.030;15.396;2023-02-01T20:17:26;4.00;99.90
8400;DHT22;4237;47.030;15.396;2023-02-01T20:19:56;4.00;99.90
8400;DHT22;4237;47.030;15.396;2023-02-01T20:22:26;4.00;99.90
8400;DHT22;4237;47.030;15.396;2023-02-01T20:24:57;3.90;99.90
8400;DHT22;4237;47.030;15.396;2023-02-01T20:27:27;4.10;99.90
8400;DHT22;4237;47.030;15.396;2023-02-01T20:29:57;4.30;99.90
8400;DHT22;4237;47.030;15.396;2023-02-01T20:32:26;4.50;99.90
8400;DHT22;4237;47.030;15.396;2023-02-01T20:34:56;4.50;99.90
8400;DHT22;4237;47.030;15.396;2023-02-01T20:37:27;4.40;99.90
8400;DHT22;4237;47.030;15.396;2023-02-01T20:39:58;4.30;99.90
8400;DHT22;4237;47.030;15.396;2023-02-01T20:42:27;4.40;99.90
8400;DHT22;4237;47.030;15.396;2023-02-01T20:44:57;4.20;99.90
8400;DHT22;4237;47.030;15.396;2023-02-01T20:47:26;3.90;99.90
8400;DHT22;4237;47.030;15.396;2023-02-01T20:49:56;3.60;99.90
8400;DHT22;4237;47.030;15.396;2023-02-01T20:52:26;3.50;99.90
8400;DHT22;4237;47.030;15.396;2023-02-01T20:57:45;3.30;99.90
8400;DHT22;4237;47.030;15.396;2023-02-01T21:00:15;3.20;99.90
8400;DHT22;4237;47.030;15.396;2023-02-01T21:02:45;3.10;99.90
8400;DHT22;4237;47.030;15.396;2023-02-01T21:05:16;3.00;99.90
8400;DHT22;4237;47.030;15.396;2023-02-01T21:07:47;2.90;99.90
8400;DHT22;4237;47.030;15.396;2023-02-01T21:10:15;2.70;99.90
8400;DHT22;4237;47.030;15.396;2023-02-01T21:12:44;2.50;99.90
8400;DHT22;4237;47.030;15.396;2023-02-01T21:15:15;2.40;99.90
8400;DHT22;4237;47.030;15.396;2023-02-01T21:17:44;2.20;99.90
8400;DHT22;4237;47.030;15.396;2023-02-01T21:20:15;2.10;99.90
8400;DHT22;4237;47.030;15.396;2023-02-01T21:22:45;2.00;99.90
8400;DHT22;4237;47.030;15.396;2023-02-01T21:25:13;1.90;99.90
8400;DHT22;4237;47.030;15.396;2023-02-01T21:27:42;1.90;99.90
8400;DHT22;4237;47.030;15.396;2023-02-01T21:30:12;1.80;99.90
8400;DHT22;4237;47.030;15.396;2023-02-01T21:32:41;1.70;99.90
8400;DHT22;4237;47.030;15.396;2023-02-01T21:35:10;1.60;99.90
8400;DHT22;4237;47.030;15.396;2023-02-01T21:37:38;1.50;99.90
8400;DHT22;4237;47.030;15.396;2023-02-01T21:40:09;1.50;99.90
8400;DHT22;4237;47.030;15.396;2023-02-01T21:42:37;1.50;99.90
8400;DHT22;4237;47.030;15.396;2023-02-01T21:45:09;1.30;99.90
8400;DHT22;4237;47.030;15.396;2023-02-01T21:47:38;1.30;99.90
8400;DHT22;4237;47.030;15.396;2023-02-01T21:50:09;1.30;99.90
8400;DHT22;4237;47.030;15.396;2023-02-01T21:52:38;1.30;99.90
8400;DHT22;4237;47.030;15.396;2023-02-01T21:55:08;1.30;99.90
8400;DHT22;4237;47.030;15.396;2023-02-01T21:57:38;1.30;99.90
8400;DHT22;4237;47.030;15.396;2023-02-01T22:00:08;1.40;99.90
8400;DHT22;4237;47.030;15.396;2023-02-01T22:02:39;1.60;99.90
8400;DHT22;4237;47.030;15.396;2023-02-01T22:05:08;1.60;99.90
8400;DHT22;4237;47.030;15.396;2023-02-01T22:07:37;1.60;99.90
8400;DHT22;4237;47.030;15.396;2023-02-01T22:10:08;1.60;99.90
8400;DHT22;4237;47.030;15.396;2023-02-01T22:12:39;1.60;99.90
8400;DHT22;4237;47.030;15.396;2023-02-01T22:15:08;1.60;99.90
8400;DHT22;4237;47.030;15.396;2023-02-01T22:17:37;1.60;99.90
8400;DHT22;4237;47.030;15.396;2023-02-01T22:20:07;1.50;99.90
8400;DHT22;4237;47.030;15.396;2023-02-01T22:22:35;1.60;99.90
8400;DHT22;4237;47.030;15.396;2023-02-01T22:25:05;1.50;99.90
8400;DHT22;4237;47.030;15.396;2023-02-01T22:27:35;1.50;99.90
8400;DHT22;4237;47.030;15.396;2023-02-01T22:30:05;1.50;99.90
8400;DHT22;4237;47.030;15.396;2023-02-01T22:32:34;1.40;99.90
8400;DHT22;4237;47.030;15.396;2023-02-01T22:35:03;1.40;99.90
8400;DHT22;4237;47.030;15.396;2023-02-01T22:37:31;1.40;99.90
8400;DHT22;4237;47.030;15.396;2023-02-01T22:40:00;1.30;99.90
8400;DHT22;4237;47.030;15.396;2023-02-01T22:42:31;1.30;99.90
8400;DHT22;4237;47.030;15.396;2023-02-01T22:45:01;1.30;99.90
8400;DHT22;4237;47.030;15.396;2023-02-01T22:47:31;1.30;99.90
8400;DHT22;4237;47.030;15.396;2023-02-01T22:49:59;1.40;99.90
8400;DHT22;4237;47.030;15.396;2023-02-01T22:52:28;1.40;99.90
8400;DHT22;4237;47.030;15.396;2023-02-01T22:54:57;1.40;99.90
8400;DHT22;4237;47.030;15.396;2023-02-01T22:57:26;1.30;99.90
8400;DHT22;4237;47.030;15.396;2023-02-01T22:59:54;1.30;99.90
8400;DHT22;4237;47.030;15.396;2023-02-01T23:02:24;1.20;99.90
8400;DHT22;4237;47.030;15.396;2023-02-01T23:04:52;1.50;99.90
8400;DHT22;4237;47.030;15.396;2023-02-01T23:07:21;1.40;99.90
8400;DHT22;4237;47.030;15.396;2023-02-01T23:09:49;1.30;99.90
8400;DHT22;4237;47.030;15.396;2023-02-01T23:12:18;1.20;99.90
8400;DHT22;4237;47.030;15.396;2023-02-01T23:14:46;1.20;99.90
8400;DHT22;4237;47.030;15.396;2023-02-01T23:17:35;1.20;99.90
8400;DHT22;4237;47.030;15.396;2023-02-01T23:20:06;1.20;99.90
8400;DHT22;4237;47.030;15.396;2023-02-01T23:22:35;1.30;99.90
8400;DHT22;4237;47.030;15.396;2023-02-01T23:25:04;1.40;99.90
8400;DHT22;4237;47.030;15.396;2023-02-01T23:27:33;1.30;99.90
8400;DHT22;4237;47.030;15.396;2023-02-01T23:30:02;1.20;99.90
8400;DHT22;4237;47.030;15.396;2023-02-01T23:32:33;1.10;99.90
8400;DHT22;4237;47.030;15.396;2023-02-01T23:35:03;1.10;99.90
8400;DHT22;4237;47.030;15.396;2023-02-01T23:37:35;1.10;99.90
8400;DHT22;4237;47.030;15.396;2023-02-01T23:40:04;1.20;99.90
8400;DHT22;4237;47.030;15.396;2023-02-01T23:42:34;1.10;99.90
8400;DHT22;4237;47.030;15.396;2023-02-01T23:45:03;1.10;99.90
8400;DHT22;4237;47.030;15.396;2023-02-01T23:47:33;1.20;99.90
8400;DHT22;4237;47.030;15.396;2023-02-01T23:50:01;1.10;99.90
8400;DHT22;4237;47.030;15.396;2023-02-01T23:52:30;1.10;99.90
8400;DHT22;4237;47.030;15.396;2023-02-01T23:54:58;1.00;99.90
8400;DHT22;4237;47.030;15.396;2023-02-01T23:57:27;1.10;99.90
8400;DHT22;4237;47.030;15.396;2023-02-01T23:59:56;1.10;99.90
